Terminal Aerodrome Forecast
Issued by NWS

Current Version | Previous Version | Text Only | Print | Product List | Glossary On
Versions: 1 2 3 4 5 6 7 8 9 10 11 12 13 14 15 16
000
FTUS45 KABQ 241134
TAFSAF
TAF
KSAF 241134Z 2412/2512 25018G28KT P6SM SCT015 BKN045
     FM241600 27020G30KT P6SM SCT030 SCT050
     FM242200 32015G25KT P6SM SCT050
     FM250130 34006KT P6SM SKC=

USA.gov is the U.S. government's official web portal to all federal, state and local government web resources and services.